CheckWX is a tool to help pilots better visualize weather data.  It is not intended as a substitute for an official pre-flight weather briefing.

20:38:24 UTC

KMAE METAR
Madera Municipal Airport
Madera, California, USA
Current

45 mins ago

KMAE 211953Z AUTO VRB05KT 10SM CLR 28/08 A2994 RMK AO2 SLP135 T02830078
Observed
Sep-21 @ 19:53 UTC
Wind
  • Variable at 5 KTS
Visibility
10 SM
Flight Rules
VFR
Cloud Levels
  • Clear skies
Temperature
28°C / 82°F
Dewpoint
C / 46°F
Humidity
28%
Altimeter
29.94" Hg
Pressure
1013.92 hPa
Previous

2 hours ago

KMAE 211853Z AUTO VRB04KT 10SM CLR 26/08 A2996 RMK AO2 SLP142 T02610083
Observed
Sep-21 @ 18:53 UTC
Wind
  • Variable at 4 KTS
Visibility
10 SM
Flight Rules
VFR
Cloud Levels
  • Clear skies
Temperature
26°C / 79°F
Dewpoint
C / 46°F
Humidity
32%
Altimeter
29.96" Hg
Pressure
1014.52 hPa
Previous

3 hours ago

KMAE 211753Z AUTO VRB04KT 10SM CLR 24/09 A2998 RMK AO2 SLP149 T02440089 10244 20117 50005
Observed
Sep-21 @ 17:53 UTC
Wind
  • Variable at 4 KTS
Visibility
10 SM
Flight Rules
VFR
Cloud Levels
  • Clear skies
Temperature
24°C / 75°F
Dewpoint
C / 48°F
Humidity
39%
Altimeter
29.98" Hg
Pressure
1015.22 hPa